createdAt,value
2017-01-15T00:00:41.203Z,0
2017-01-15T00:01:51.187Z,0
2017-01-15T00:03:01.967Z,0
2017-01-15T00:04:12.340Z,0
2017-01-15T00:05:23.097Z,0
2017-01-15T00:06:33.463Z,0
2017-01-15T00:07:44.234Z,0
2017-01-15T00:08:54.585Z,0
2017-01-15T00:10:04.982Z,0
2017-01-15T00:11:15.368Z,0
2017-01-15T00:12:25.326Z,0
2017-01-15T00:13:36.087Z,0
2017-01-15T00:14:46.860Z,0
2017-01-15T00:15:57.613Z,0
2017-01-15T00:17:08.008Z,0
2017-01-15T00:18:18.774Z,0
2017-01-15T00:19:28.727Z,0
2017-01-15T00:20:39.078Z,0
2017-01-15T00:21:49.821Z,0
2017-01-15T00:23:00.575Z,0
2017-01-15T00:24:11.344Z,0
2017-01-15T00:25:21.691Z,0
2017-01-15T00:26:32.437Z,0
2017-01-15T00:27:43.183Z,0
2017-01-15T00:28:53.150Z,0
2017-01-15T00:30:03.896Z,0
2017-01-15T00:31:14.653Z,0
2017-01-15T00:32:25.011Z,0
2017-01-15T00:33:35.347Z,0
2017-01-15T00:34:45.703Z,0
2017-01-15T00:35:56.051Z,0
2017-01-15T00:37:06.806Z,0
2017-01-15T00:38:17.579Z,0
2017-01-15T00:39:28.316Z,0
2017-01-15T00:40:39.082Z,0
2017-01-15T00:41:49.836Z,0
2017-01-15T00:42:59.817Z,0
2017-01-15T00:44:10.181Z,0
2017-01-15T00:45:20.916Z,0
2017-01-15T00:46:31.260Z,0
2017-01-15T00:47:41.616Z,0
2017-01-15T00:48:51.983Z,0
2017-01-15T00:50:02.729Z,0
2017-01-15T00:51:13.116Z,0
2017-01-15T00:52:23.473Z,0
2017-01-15T00:53:33.830Z,0
2017-01-15T00:54:44.575Z,0
2017-01-15T00:55:54.917Z,0
2017-01-15T00:57:05.671Z,0
2017-01-15T00:58:16.036Z,0
2017-01-15T00:59:26.807Z,0
2017-01-15T01:00:37.168Z,0
2017-01-15T01:01:47.519Z,0
2017-01-15T01:02:58.272Z,0
2017-01-15T01:04:09.048Z,0
2017-01-15T01:05:19.387Z,0
2017-01-15T01:06:30.134Z,0
2017-01-15T01:07:40.553Z,0
2017-01-15T01:08:50.906Z,0
2017-01-15T01:10:00.882Z,0
2017-01-15T01:11:11.673Z,0
2017-01-15T01:12:22.018Z,0
2017-01-15T01:13:32.753Z,0
2017-01-15T01:14:42.703Z,0
2017-01-15T01:15:53.486Z,0
2017-01-15T01:17:04.224Z,0
2017-01-15T01:18:14.588Z,0
2017-01-15T01:19:24.936Z,0
2017-01-15T01:20:35.678Z,0
2017-01-15T01:21:46.410Z,0
2017-01-15T01:22:56.360Z,0
2017-01-15T01:24:06.333Z,0
2017-01-15T01:25:16.675Z,0
2017-01-15T01:26:27.106Z,0
2017-01-15T01:27:37.443Z,0
2017-01-15T01:28:47.384Z,0
2017-01-15T01:29:57.337Z,0
2017-01-15T01:31:08.082Z,0
2017-01-15T01:32:18.061Z,0
2017-01-15T01:33:28.421Z,0
2017-01-15T01:34:38.769Z,0
2017-01-15T01:35:49.514Z,0
2017-01-15T01:36:59.890Z,0
2017-01-15T01:38:09.864Z,0
2017-01-15T01:39:20.609Z,0
2017-01-15T01:40:30.942Z,0
2017-01-15T01:41:41.278Z,0
2017-01-15T01:42:51.231Z,0
2017-01-15T01:44:01.248Z,0
2017-01-15T01:45:11.994Z,0
2017-01-15T01:46:22.355Z,0
2017-01-15T01:47:32.703Z,0
2017-01-15T01:48:43.045Z,0
2017-01-15T01:49:53.785Z,0
2017-01-15T01:51:04.543Z,0
2017-01-15T01:52:15.275Z,0
2017-01-15T01:53:25.617Z,0
2017-01-15T01:54:35.984Z,0
2017-01-15T01:55:46.317Z,0
2017-01-15T01:56:57.089Z,0
2017-01-15T01:58:07.439Z,0
2017-01-15T01:59:18.200Z,0
2017-01-15T02:00:28.156Z,0
2017-01-15T02:01:38.504Z,0
2017-01-15T02:02:49.240Z,0
2017-01-15T02:03:59.198Z,0
2017-01-15T02:05:09.968Z,0
2017-01-15T02:06:20.717Z,0
2017-01-15T02:07:30.672Z,0
2017-01-15T02:08:41.024Z,0
2017-01-15T02:09:51.366Z,0
2017-01-15T02:11:01.319Z,0
2017-01-15T02:12:12.063Z,0
2017-01-15T02:13:22.401Z,0
2017-01-15T02:14:32.748Z,0
2017-01-15T02:15:43.501Z,0
2017-01-15T02:16:54.247Z,0
2017-01-15T02:18:04.614Z,0
2017-01-15T02:19:14.190Z,0
2017-01-15T02:20:24.528Z,0
2017-01-15T02:21:34.550Z,0
2017-01-15T02:22:45.284Z,0
2017-01-15T02:23:56.028Z,0
2017-01-15T02:25:05.995Z,0
2017-01-15T02:26:15.941Z,0
2017-01-15T02:27:26.673Z,0
2017-01-15T02:28:37.025Z,0
2017-01-15T02:29:47.764Z,0
2017-01-15T02:30:58.110Z,0
2017-01-15T02:32:08.492Z,0
2017-01-15T02:33:19.239Z,0
2017-01-15T02:34:29.190Z,0
2017-01-15T02:35:39.531Z,0
2017-01-15T02:36:50.293Z,0
2017-01-15T02:38:00.644Z,0
2017-01-15T02:39:11.417Z,0
2017-01-15T02:40:21.744Z,0
2017-01-15T02:41:31.730Z,0
2017-01-15T02:42:42.477Z,0
2017-01-15T02:43:53.210Z,0
2017-01-15T02:45:03.963Z,0
2017-01-15T02:46:14.313Z,0
2017-01-15T02:47:25.060Z,0
2017-01-15T02:48:35.413Z,0
2017-01-15T02:49:45.372Z,0
2017-01-15T02:50:56.115Z,0
2017-01-15T02:52:06.571Z,0
2017-01-15T02:53:17.273Z,0
2017-01-15T02:54:27.996Z,0
2017-01-15T02:55:38.742Z,0
2017-01-15T02:56:49.089Z,0
2017-01-15T02:57:59.417Z,0
2017-01-15T02:59:09.770Z,0
2017-01-15T03:00:20.501Z,0
2017-01-15T03:01:30.856Z,0
2017-01-15T03:33:25.122Z,0
2017-01-15T03:34:35.062Z,0
2017-01-15T03:35:45.418Z,0
2017-01-15T03:36:56.154Z,0
2017-01-15T03:38:06.510Z,0
2017-01-15T03:39:17.251Z,0
2017-01-15T03:40:27.994Z,0
2017-01-15T03:41:38.728Z,0
2017-01-15T03:42:49.333Z,0
2017-01-15T03:43:59.306Z,0
2017-01-15T03:45:10.044Z,0
2017-01-15T03:46:20.409Z,0
2017-01-15T03:47:31.156Z,0
2017-01-15T03:48:41.112Z,0
2017-01-15T03:49:51.460Z,0
2017-01-15T03:51:01.407Z,0
2017-01-15T03:52:12.149Z,0
2017-01-15T03:53:22.889Z,0
2017-01-15T03:54:33.623Z,0
2017-01-15T03:55:43.968Z,0
2017-01-15T03:56:54.710Z,0
2017-01-15T03:58:05.052Z,0
2017-01-15T03:59:15.786Z,0
2017-01-15T04:00:26.136Z,0
2017-01-15T04:01:36.091Z,0
2017-01-15T04:02:46.449Z,0
2017-01-15T04:03:57.186Z,0
2017-01-15T04:05:07.542Z,0
2017-01-15T04:06:18.288Z,0
2017-01-15T04:07:27.834Z,0
2017-01-15T04:08:38.577Z,0
2017-01-15T04:09:49.313Z,0
2017-01-15T04:11:00.050Z,0
2017-01-15T04:12:10.802Z,0
2017-01-15T04:13:21.551Z,0
2017-01-15T04:14:32.291Z,0
2017-01-15T04:15:41.862Z,0
2017-01-15T04:16:52.601Z,0
2017-01-15T04:18:03.353Z,0
2017-01-15T04:19:14.092Z,0
2017-01-15T04:20:24.443Z,0
2017-01-15T04:21:34.390Z,0
2017-01-15T04:22:44.771Z,0
2017-01-15T04:23:55.129Z,0
2017-01-15T04:25:05.482Z,0
2017-01-15T04:26:16.215Z,0
2017-01-15T04:27:26.969Z,0
2017-01-15T04:28:37.326Z,0
2017-01-15T04:29:47.275Z,0
2017-01-15T04:30:58.030Z,0
2017-01-15T04:32:08.371Z,0
2017-01-15T04:33:19.108Z,0
2017-01-15T04:34:29.449Z,0
2017-01-15T04:35:39.413Z,0
2017-01-15T04:36:50.161Z,0
2017-01-15T04:38:00.519Z,0
2017-01-15T04:39:10.866Z,0
2017-01-15T04:40:21.227Z,0
2017-01-15T04:41:31.985Z,0
2017-01-15T04:42:42.717Z,0
2017-01-15T04:43:52.679Z,0
2017-01-15T04:45:03.035Z,0
2017-01-15T04:46:13.797Z,0
2017-01-15T04:47:23.763Z,0
2017-01-15T04:48:34.112Z,0
2017-01-15T04:49:44.485Z,0
2017-01-15T04:50:55.243Z,0
2017-01-15T04:52:05.204Z,0
2017-01-15T04:53:15.148Z,0
2017-01-15T04:54:25.498Z,0
2017-01-15T04:55:36.225Z,0
2017-01-15T04:56:46.966Z,0
2017-01-15T04:57:57.708Z,0
2017-01-15T04:59:08.044Z,0
2017-01-15T05:00:17.988Z,0
2017-01-15T05:01:28.324Z,0
2017-01-15T05:02:39.059Z,0
2017-01-15T05:03:49.803Z,0
2017-01-15T05:05:00.563Z,0
2017-01-15T05:06:11.304Z,0
2017-01-15T05:07:21.651Z,0
2017-01-15T05:08:31.195Z,0
2017-01-15T05:09:41.537Z,0
2017-01-15T05:10:51.886Z,0
2017-01-15T05:12:01.859Z,0
2017-01-15T05:13:12.225Z,0
2017-01-15T05:14:22.178Z,0
2017-01-15T05:15:32.528Z,0
2017-01-15T05:16:42.871Z,0
2017-01-15T05:17:53.609Z,0
2017-01-15T05:19:04.357Z,0
2017-01-15T05:20:14.337Z,0
2017-01-15T05:21:25.074Z,0
2017-01-15T05:22:35.823Z,0
2017-01-15T05:23:46.175Z,0
2017-01-15T05:24:55.721Z,0
2017-01-15T05:26:05.699Z,0
2017-01-15T05:27:16.445Z,0
2017-01-15T05:28:26.812Z,0
2017-01-15T05:29:37.549Z,0
2017-01-15T05:30:47.890Z,0
2017-01-15T05:31:57.851Z,0
2017-01-15T05:33:07.811Z,0
2017-01-15T05:34:18.564Z,0
2017-01-15T05:35:28.937Z,0
2017-01-15T05:36:39.289Z,0
2017-01-15T05:37:50.029Z,0
2017-01-15T05:39:00.777Z,0
2017-01-15T05:40:11.524Z,0
2017-01-15T05:41:22.264Z,0
2017-01-15T05:42:33.007Z,0
2017-01-15T05:43:43.348Z,0
2017-01-15T05:44:53.297Z,0
2017-01-15T05:46:03.641Z,0
2017-01-15T05:47:13.986Z,0
2017-01-15T05:48:24.762Z,0
2017-01-15T05:49:35.501Z,0
2017-01-15T05:50:45.047Z,0
2017-01-15T05:51:55.774Z,0
2017-01-15T05:53:05.727Z,0
2017-01-15T05:54:16.088Z,0
2017-01-15T05:55:26.459Z,0
2017-01-15T05:56:37.201Z,0
2017-01-15T05:57:47.543Z,0
2017-01-15T05:58:57.885Z,0
2017-01-15T06:00:08.631Z,0
2017-01-15T06:01:18.987Z,4
2017-01-15T06:02:29.335Z,4
2017-01-15T06:03:39.690Z,4
2017-01-15T06:04:50.420Z,0
2017-01-15T06:06:00.374Z,0
2017-01-15T06:07:10.721Z,4
2017-01-15T06:08:21.459Z,4
2017-01-15T06:09:32.201Z,4
2017-01-15T06:10:42.536Z,4
2017-01-15T06:11:53.266Z,4
2017-01-15T06:13:03.620Z,4
2017-01-15T06:14:14.367Z,8
2017-01-15T06:15:24.722Z,8
2017-01-15T06:16:35.460Z,8
2017-01-15T06:17:45.426Z,8
2017-01-15T06:18:55.773Z,12
2017-01-15T06:20:06.516Z,16
2017-01-15T06:21:17.255Z,16
2017-01-15T06:22:27.595Z,20
2017-01-15T06:23:38.334Z,20
2017-01-15T06:24:48.676Z,28
2017-01-15T06:25:59.437Z,28
2017-01-15T06:27:09.800Z,36
2017-01-15T06:28:20.557Z,40
2017-01-15T06:29:31.307Z,48
2017-01-15T06:30:42.069Z,56
2017-01-15T06:31:52.797Z,64
2017-01-15T06:33:03.159Z,72
2017-01-15T06:34:13.900Z,84
2017-01-15T06:35:24.242Z,96
2017-01-15T06:36:34.985Z,108
2017-01-15T06:37:45.731Z,120
2017-01-15T06:38:56.088Z,136
2017-01-15T06:40:06.840Z,152
2017-01-15T06:41:17.176Z,168
2017-01-15T06:42:27.126Z,184
2017-01-15T06:43:37.476Z,204
2017-01-15T06:44:48.228Z,224
2017-01-15T06:45:58.179Z,248
2017-01-15T06:47:08.959Z,268
2017-01-15T06:48:19.697Z,292
2017-01-15T06:49:30.029Z,312
2017-01-15T06:50:40.373Z,340
2017-01-15T06:51:50.718Z,368
2017-01-15T06:53:01.453Z,392
2017-01-15T06:54:11.830Z,416
2017-01-15T06:55:22.182Z,444
2017-01-15T06:56:32.539Z,472
2017-01-15T06:57:43.288Z,508
2017-01-15T06:58:53.645Z,548
2017-01-15T07:00:03.998Z,588
2017-01-15T07:01:14.353Z,616
2017-01-15T07:02:25.082Z,664
2017-01-15T07:03:35.819Z,692
2017-01-15T07:04:46.171Z,684
2017-01-15T07:05:56.759Z,688
2017-01-15T07:07:07.490Z,716
2017-01-15T07:08:18.230Z,812
2017-01-15T07:09:29.005Z,892
2017-01-15T07:10:39.356Z,1016
2017-01-15T07:11:49.312Z,1092
2017-01-15T07:13:00.053Z,1144
2017-01-15T07:14:10.410Z,1196
2017-01-15T07:15:21.176Z,1240
2017-01-15T07:16:31.904Z,1280
2017-01-15T07:17:42.291Z,1340
2017-01-15T07:18:53.041Z,1392
2017-01-15T07:20:03.787Z,1444
2017-01-15T07:21:14.135Z,1492
2017-01-15T07:22:24.075Z,1516
2017-01-15T07:23:34.811Z,1300
2017-01-15T07:24:45.551Z,1088
2017-01-15T07:25:55.909Z,1064
2017-01-15T07:27:06.655Z,1076
2017-01-15T07:28:17.011Z,1100
2017-01-15T07:29:27.753Z,1104
2017-01-15T07:30:38.104Z,1120
2017-01-15T07:31:48.867Z,1124
2017-01-15T07:32:58.819Z,1128
2017-01-15T07:34:09.579Z,1144
2017-01-15T07:35:20.320Z,1196
2017-01-15T07:36:31.071Z,1256
2017-01-15T07:37:41.811Z,1308
2017-01-15T07:38:52.157Z,1344
2017-01-15T07:40:02.503Z,1376
2017-01-15T07:41:12.865Z,1392
2017-01-15T07:42:23.204Z,1396
2017-01-15T07:43:33.963Z,1384
2017-01-15T07:44:44.696Z,1360
2017-01-15T07:45:54.663Z,1344
2017-01-15T07:47:05.420Z,1336
2017-01-15T07:48:15.395Z,1344
2017-01-15T07:49:25.358Z,1368
2017-01-15T07:50:35.313Z,1404
2017-01-15T07:51:45.665Z,1448
2017-01-15T07:52:56.022Z,1504
2017-01-15T07:54:05.984Z,1560
2017-01-15T07:55:15.935Z,1616
2017-01-15T07:56:26.677Z,1676
2017-01-15T07:57:37.038Z,1728
2017-01-15T07:58:47.803Z,1760
2017-01-15T07:59:58.152Z,1768
2017-01-15T08:01:07.717Z,1772
2017-01-15T08:02:18.071Z,1776
2017-01-15T08:03:28.819Z,1788
2017-01-15T08:04:38.393Z,1784
2017-01-15T08:05:49.155Z,1808
2017-01-15T08:06:59.540Z,1856
2017-01-15T08:08:10.302Z,1924
2017-01-15T08:09:21.050Z,1972
2017-01-15T08:10:31.396Z,2112
2017-01-15T08:11:41.742Z,2084
2017-01-15T08:12:52.483Z,2344
2017-01-15T08:14:03.231Z,2388
2017-01-15T08:15:14.018Z,2544
2017-01-15T08:16:24.384Z,2516
2017-01-15T08:17:35.140Z,3884
2017-01-15T08:18:45.889Z,3952
2017-01-15T08:19:56.245Z,3980
2017-01-15T08:21:06.201Z,4036
2017-01-15T08:22:16.937Z,4140
2017-01-15T08:23:27.710Z,4240
2017-01-15T08:24:38.075Z,4352
2017-01-15T08:25:48.811Z,4488
2017-01-15T08:26:59.160Z,4608
2017-01-15T08:28:09.139Z,4660
2017-01-15T08:29:19.488Z,4728
2017-01-15T08:30:29.834Z,4688
2017-01-15T08:31:40.209Z,4396
2017-01-15T08:32:50.598Z,3972
2017-01-15T08:34:00.548Z,3224
2017-01-15T08:35:11.297Z,3064
2017-01-15T08:36:22.059Z,3168
2017-01-15T08:37:32.853Z,4216
2017-01-15T08:38:43.630Z,5280
2017-01-15T08:39:54.406Z,5360
2017-01-15T08:41:04.754Z,5356
2017-01-15T08:42:15.491Z,5404
2017-01-15T08:43:26.272Z,3752
2017-01-15T08:44:36.624Z,5468
2017-01-15T08:45:46.620Z,5296
2017-01-15T08:46:56.968Z,4268
2017-01-15T08:48:07.314Z,3440
2017-01-15T08:49:18.081Z,3964
2017-01-15T08:50:28.838Z,3132
2017-01-15T08:51:39.194Z,3648
2017-01-15T08:52:49.537Z,3160
2017-01-15T08:53:59.538Z,3256
2017-01-15T08:55:10.324Z,3232
2017-01-15T08:56:21.075Z,2936
2017-01-15T08:57:31.813Z,2848
2017-01-15T08:58:42.179Z,2928
2017-01-15T08:59:52.944Z,3072
2017-01-15T09:01:03.692Z,3264
2017-01-15T09:02:14.464Z,3528
2017-01-15T09:03:24.426Z,3652
2017-01-15T09:04:34.784Z,4680
2017-01-15T09:05:45.155Z,3828
2017-01-15T09:06:55.515Z,3684
2017-01-15T09:08:06.273Z,3768
2017-01-15T09:09:17.017Z,3812
2017-01-15T09:10:27.786Z,3892
2017-01-15T09:11:38.578Z,3932
2017-01-15T09:12:49.335Z,3984
2017-01-15T09:13:58.888Z,3976
2017-01-15T09:15:09.230Z,4016
2017-01-15T09:16:19.989Z,4764
2017-01-15T09:17:29.939Z,4608
2017-01-15T09:18:40.309Z,5228
2017-01-15T09:19:51.061Z,5180
2017-01-15T09:21:00.623Z,9712
2017-01-15T09:22:11.384Z,5860
2017-01-15T09:23:22.171Z,5076
2017-01-15T09:24:32.927Z,5032
2017-01-15T09:25:43.324Z,5392
2017-01-15T09:26:54.068Z,5684
2017-01-15T09:28:04.846Z,5420
2017-01-15T09:29:15.600Z,8132
2017-01-15T09:30:25.948Z,8064
2017-01-15T09:31:36.697Z,5736
2017-01-15T09:32:47.059Z,4820
2017-01-15T09:33:57.031Z,6440
2017-01-15T09:35:07.013Z,5428
2017-01-15T09:36:16.980Z,5020
2017-01-15T09:37:27.337Z,4880
2017-01-15T09:38:38.329Z,6636
2017-01-15T09:39:49.084Z,6616
2017-01-15T09:40:59.435Z,7000
2017-01-15T09:42:10.198Z,6852
2017-01-15T09:43:19.790Z,9364
2017-01-15T09:44:30.538Z,5060
2017-01-15T09:45:40.886Z,4960
2017-01-15T09:46:51.701Z,4716
2017-01-15T09:48:02.452Z,4648
2017-01-15T09:49:12.819Z,4744
2017-01-15T09:50:22.777Z,4788
2017-01-15T09:51:33.572Z,4848
2017-01-15T09:52:44.326Z,4916
2017-01-15T09:53:55.081Z,4924
2017-01-15T09:55:05.873Z,5120
2017-01-15T09:56:16.264Z,5716
2017-01-15T09:57:26.608Z,5268
2017-01-15T09:58:37.360Z,4852
2017-01-15T09:59:48.107Z,4404
2017-01-15T10:00:58.861Z,4232
2017-01-15T10:02:09.203Z,4184
2017-01-15T10:03:19.569Z,4184
2017-01-15T10:04:29.938Z,4240
2017-01-15T10:05:39.910Z,4304
2017-01-15T10:06:50.266Z,4440
2017-01-15T10:08:01.018Z,4388
2017-01-15T10:09:10.997Z,4432
2017-01-15T10:10:21.012Z,4436
2017-01-15T10:11:31.357Z,4344
2017-01-15T10:12:41.719Z,4200
2017-01-15T10:13:52.066Z,4044
2017-01-15T10:15:03.063Z,3856
2017-01-15T10:16:13.810Z,3700
2017-01-15T10:17:24.574Z,3608
2017-01-15T10:18:35.334Z,3612
2017-01-15T10:19:46.101Z,3652
2017-01-15T10:20:56.877Z,3680
2017-01-15T10:22:07.634Z,3704
2017-01-15T10:23:18.383Z,3736
2017-01-15T10:24:28.753Z,3768
2017-01-15T10:25:39.129Z,3776
2017-01-15T10:26:49.491Z,3776
2017-01-15T10:28:00.245Z,3772
2017-01-15T10:29:11.004Z,3768
2017-01-15T10:30:21.772Z,3796
2017-01-15T10:31:32.521Z,3924
2017-01-15T10:32:42.892Z,4100
2017-01-15T10:33:53.283Z,4256
2017-01-15T10:35:04.044Z,4376
2017-01-15T10:36:13.606Z,4504
2017-01-15T10:37:23.976Z,4624
2017-01-15T10:38:34.734Z,4680
2017-01-15T10:39:44.691Z,4728
2017-01-15T10:40:54.644Z,4852
2017-01-15T10:42:04.623Z,4924
2017-01-15T10:43:15.387Z,4908
2017-01-15T10:44:25.360Z,4880
2017-01-15T10:45:35.332Z,4944
2017-01-15T10:46:46.096Z,4996
2017-01-15T10:47:56.853Z,4852
2017-01-15T10:49:07.221Z,4776
2017-01-15T10:50:17.978Z,4528
2017-01-15T10:51:28.732Z,4500
2017-01-15T10:52:38.709Z,4352
2017-01-15T10:53:49.453Z,4216
2017-01-15T10:54:59.818Z,4220
2017-01-15T10:56:10.177Z,4548
2017-01-15T10:57:19.757Z,4848
2017-01-15T10:58:30.505Z,5016
2017-01-15T10:59:40.874Z,4360
2017-01-15T11:00:51.642Z,4488
2017-01-15T11:02:02.026Z,4732
2017-01-15T11:03:12.799Z,4720
2017-01-15T11:04:23.568Z,4288
2017-01-15T11:05:33.952Z,4024
2017-01-15T11:06:44.302Z,3936
2017-01-15T11:07:55.077Z,3808
2017-01-15T11:09:05.859Z,3684
2017-01-15T11:10:16.266Z,3852
2017-01-15T11:11:26.618Z,4448
2017-01-15T11:12:36.995Z,6092
2017-01-15T11:13:47.364Z,5860
2017-01-15T11:14:57.728Z,4088
2017-01-15T11:16:07.295Z,3236
2017-01-15T11:17:17.667Z,3776
2017-01-15T11:18:28.031Z,3740
2017-01-15T11:19:38.011Z,4448
2017-01-15T11:20:48.398Z,3168
2017-01-15T11:21:58.799Z,3376
2017-01-15T11:23:08.772Z,7840
2017-01-15T11:24:19.134Z,8176
2017-01-15T11:25:29.891Z,8048
2017-01-15T11:26:40.691Z,8124
2017-01-15T11:27:51.457Z,4372
2017-01-15T11:29:02.210Z,4552
2017-01-15T11:30:12.201Z,8500
2017-01-15T11:31:22.957Z,9148
2017-01-15T11:32:32.543Z,5244
2017-01-15T11:33:43.299Z,4556
2017-01-15T11:34:53.684Z,4472
2017-01-15T11:36:04.435Z,4172
2017-01-15T11:37:14.787Z,3972
2017-01-15T11:38:25.546Z,4032
2017-01-15T11:39:35.930Z,4120
2017-01-15T11:40:46.280Z,4244
2017-01-15T11:41:56.658Z,4356
2017-01-15T11:43:07.016Z,4456
2017-01-15T11:44:17.378Z,4548
2017-01-15T11:45:27.753Z,4580
2017-01-15T11:46:38.516Z,4504
2017-01-15T11:47:49.302Z,4364
2017-01-15T11:48:59.661Z,4168
2017-01-15T11:50:10.020Z,3992
2017-01-15T11:51:20.788Z,3896
2017-01-15T11:52:31.575Z,3792
2017-01-15T11:53:41.940Z,3804
2017-01-15T11:54:52.306Z,3552
2017-01-15T11:56:03.075Z,3576
2017-01-15T11:57:13.052Z,5332
2017-01-15T11:58:23.799Z,5480
2017-01-15T11:59:33.782Z,8544
2017-01-15T12:00:44.543Z,8600
2017-01-15T12:01:55.304Z,8620
2017-01-15T12:03:06.086Z,5356
2017-01-15T12:04:16.864Z,6448
2017-01-15T12:05:27.625Z,3676
2017-01-15T12:06:38.014Z,3568
2017-01-15T12:07:48.388Z,3528
2017-01-15T12:08:58.763Z,3700
2017-01-15T12:10:09.517Z,5924
2017-01-15T12:11:20.267Z,3420
2017-01-15T12:12:31.039Z,3276
2017-01-15T12:13:41.786Z,3224
2017-01-15T12:14:52.547Z,3192
2017-01-15T12:16:03.361Z,3152
2017-01-15T12:17:13.715Z,3064
2017-01-15T12:18:24.068Z,2964
2017-01-15T12:19:34.809Z,3000
2017-01-15T12:20:45.556Z,3832
2017-01-15T12:21:55.917Z,3240
2017-01-15T12:23:06.684Z,3316
2017-01-15T12:24:17.453Z,3312
2017-01-15T12:25:28.237Z,3340
2017-01-15T12:26:39.004Z,3316
2017-01-15T12:27:48.970Z,3244
2017-01-15T12:28:59.328Z,3200
2017-01-15T12:30:09.710Z,3164
2017-01-15T12:31:20.350Z,3216
2017-01-15T12:32:30.712Z,3268
2017-01-15T12:33:40.681Z,3264
2017-01-15T12:34:51.037Z,3252
2017-01-15T12:36:01.445Z,3192
2017-01-15T12:37:12.218Z,3160
2017-01-15T12:38:22.998Z,3344
2017-01-15T12:39:33.818Z,9080
2017-01-15T12:40:44.219Z,3480
2017-01-15T12:41:54.662Z,3260
2017-01-15T12:43:05.033Z,3028
2017-01-15T12:44:15.801Z,2960
2017-01-15T12:45:26.573Z,2928
2017-01-15T12:46:36.930Z,2876
2017-01-15T12:47:47.701Z,2784
2017-01-15T12:48:58.111Z,2896
2017-01-15T12:50:08.489Z,3068
2017-01-15T12:51:18.861Z,2920
2017-01-15T12:52:29.608Z,2920
2017-01-15T12:53:39.989Z,2880
2017-01-15T12:54:50.759Z,2864
2017-01-15T12:56:00.752Z,2872
2017-01-15T12:57:10.698Z,3072
2017-01-15T12:58:21.460Z,3036
2017-01-15T12:59:31.817Z,3008
2017-01-15T13:00:42.563Z,3164
2017-01-15T13:01:52.932Z,5284
2017-01-15T13:03:03.679Z,4324
2017-01-15T13:04:14.044Z,4916
2017-01-15T13:05:24.836Z,7900
2017-01-15T13:06:35.202Z,8180
2017-01-15T13:07:45.559Z,7076
2017-01-15T13:08:55.521Z,7424
2017-01-15T13:10:05.887Z,5708
2017-01-15T13:11:16.637Z,4876
2017-01-15T13:12:26.997Z,7272
2017-01-15T13:13:37.383Z,4076
2017-01-15T13:14:46.969Z,4052
2017-01-15T13:15:57.345Z,6636
2017-01-15T13:17:07.319Z,6532
2017-01-15T13:18:18.078Z,6400
2017-01-15T13:19:28.831Z,6132
2017-01-15T13:20:38.409Z,5860
2017-01-15T13:21:49.203Z,6048
2017-01-15T13:22:59.178Z,5908
2017-01-15T13:24:09.942Z,5848
2017-01-15T13:25:20.717Z,5848
2017-01-15T13:26:31.090Z,5708
2017-01-15T13:27:41.503Z,5620
2017-01-15T13:28:52.281Z,5560
2017-01-15T13:30:02.266Z,5492
2017-01-15T13:31:12.639Z,5104
2017-01-15T13:32:23.429Z,3284
2017-01-15T13:33:33.811Z,2424
2017-01-15T13:34:44.577Z,5176
2017-01-15T13:35:54.933Z,2780
2017-01-15T13:37:05.681Z,2232
2017-01-15T13:38:16.463Z,2156
2017-01-15T13:39:26.045Z,2168
2017-01-15T13:40:36.818Z,2260
2017-01-15T13:41:47.597Z,2264
2017-01-15T13:42:58.371Z,2120
2017-01-15T13:44:08.747Z,1892
2017-01-15T13:45:19.507Z,1784
2017-01-15T13:46:29.910Z,1712
2017-01-15T13:47:40.678Z,2824
2017-01-15T13:48:51.042Z,3832
2017-01-15T13:50:01.437Z,4232
2017-01-15T13:51:11.823Z,4208
2017-01-15T13:52:22.188Z,4224
2017-01-15T13:53:32.561Z,4172
2017-01-15T13:54:42.932Z,4132
2017-01-15T13:55:53.315Z,4176
2017-01-15T13:57:04.085Z,4212
2017-01-15T13:58:14.469Z,4192
2017-01-15T13:59:25.224Z,4108
2017-01-15T14:00:35.206Z,4064
2017-01-15T14:01:45.966Z,4056
2017-01-15T14:02:56.739Z,4100
2017-01-15T14:04:07.123Z,4048
2017-01-15T14:05:17.891Z,4032
2017-01-15T14:06:28.501Z,4004
2017-01-15T14:07:38.875Z,3924
2017-01-15T14:08:49.248Z,3784
2017-01-15T14:10:00.013Z,3760
2017-01-15T14:11:10.785Z,3656
2017-01-15T14:12:21.541Z,3544
2017-01-15T14:13:31.943Z,3448
2017-01-15T14:14:42.727Z,3360
2017-01-15T14:15:53.506Z,3284
2017-01-15T14:17:03.872Z,3264
2017-01-15T14:18:14.630Z,3216
2017-01-15T14:19:25.427Z,3128
2017-01-15T14:20:36.210Z,1640
2017-01-15T14:21:46.969Z,1456
2017-01-15T14:22:56.540Z,2316
2017-01-15T14:24:06.931Z,1612
2017-01-15T14:25:17.714Z,2024
2017-01-15T14:26:28.461Z,2508
2017-01-15T14:27:38.419Z,2408
2017-01-15T14:28:49.178Z,2248
2017-01-15T14:29:59.963Z,2256
2017-01-15T14:31:10.328Z,2144
2017-01-15T14:32:21.105Z,2052
2017-01-15T14:33:31.493Z,1892
2017-01-15T14:34:42.251Z,1332
2017-01-15T14:35:53.015Z,1628
2017-01-15T14:37:03.044Z,1608
2017-01-15T14:38:13.820Z,1736
2017-01-15T14:39:24.598Z,1496
2017-01-15T14:40:34.976Z,1548
2017-01-15T14:41:45.735Z,1380
2017-01-15T14:42:56.102Z,1260
2017-01-15T14:44:06.886Z,1144
2017-01-15T14:45:17.264Z,1076
2017-01-15T14:46:27.655Z,1040
2017-01-15T14:47:37.622Z,1012
2017-01-15T14:48:47.999Z,952
2017-01-15T14:49:58.795Z,912
2017-01-15T14:51:09.552Z,868
2017-01-15T14:52:20.295Z,840
2017-01-15T14:53:31.044Z,804
2017-01-15T14:54:41.407Z,788
2017-01-15T14:55:52.160Z,776
2017-01-15T14:57:02.915Z,756
2017-01-15T14:58:13.670Z,732
2017-01-15T14:59:24.033Z,704
2017-01-15T15:00:34.390Z,676
2017-01-15T15:01:44.757Z,656
2017-01-15T15:02:55.139Z,628
2017-01-15T15:04:05.902Z,600
2017-01-15T15:05:16.659Z,572
2017-01-15T15:06:27.013Z,544
2017-01-15T15:07:37.761Z,516
2017-01-15T15:08:47.711Z,492
2017-01-15T15:09:57.692Z,464
2017-01-15T15:11:08.065Z,432
2017-01-15T15:12:18.429Z,404
2017-01-15T15:13:28.789Z,380
2017-01-15T15:14:39.165Z,348
2017-01-15T15:15:49.522Z,324
2017-01-15T15:16:59.915Z,300
2017-01-15T15:18:10.671Z,280
2017-01-15T15:19:21.469Z,256
2017-01-15T15:20:31.411Z,236
2017-01-15T15:21:41.768Z,216
2017-01-15T15:22:52.126Z,196
2017-01-15T15:24:02.471Z,180
2017-01-15T15:25:12.447Z,160
2017-01-15T15:26:23.208Z,148
2017-01-15T15:27:33.587Z,132
2017-01-15T15:28:44.349Z,120
2017-01-15T15:29:55.099Z,104
2017-01-15T15:31:05.476Z,96
2017-01-15T15:32:16.220Z,84
2017-01-15T15:33:26.609Z,72
2017-01-15T15:34:36.583Z,68
2017-01-15T15:35:47.378Z,56
2017-01-15T15:36:58.116Z,48
2017-01-15T15:38:08.894Z,44
2017-01-15T15:39:19.254Z,36
2017-01-15T15:40:29.620Z,32
2017-01-15T15:41:39.604Z,28
2017-01-15T15:42:50.364Z,24
2017-01-15T15:44:01.115Z,20
2017-01-15T15:45:11.876Z,16
2017-01-15T15:46:22.629Z,12
2017-01-15T15:47:33.409Z,12
2017-01-15T15:48:43.764Z,8
2017-01-15T15:49:53.717Z,8
2017-01-15T15:51:04.080Z,4
2017-01-15T15:52:14.830Z,4
2017-01-15T15:53:25.178Z,4
2017-01-15T15:54:35.557Z,4
2017-01-15T15:55:45.905Z,4
2017-01-15T15:56:56.684Z,4
2017-01-15T15:58:07.042Z,4
2017-01-15T15:59:17.491Z,0
2017-01-15T16:00:27.881Z,0
2017-01-15T16:01:38.663Z,4
2017-01-15T16:02:49.046Z,4
2017-01-15T16:03:59.023Z,4
2017-01-15T16:05:09.796Z,0
2017-01-15T16:06:20.560Z,0
2017-01-15T16:07:31.322Z,0
2017-01-15T16:08:42.103Z,0
2017-01-15T16:09:52.865Z,0
2017-01-15T16:11:03.231Z,0
2017-01-15T16:12:13.616Z,0
2017-01-15T16:13:24.372Z,0
2017-01-15T16:14:35.133Z,0
2017-01-15T16:15:45.497Z,0
2017-01-15T16:16:56.265Z,0
2017-01-15T16:18:06.244Z,0
2017-01-15T16:19:16.227Z,0
2017-01-15T16:20:26.632Z,0
2017-01-15T16:21:37.442Z,0
2017-01-15T16:22:48.244Z,0
2017-01-15T16:23:58.250Z,0
2017-01-15T16:25:09.060Z,0
2017-01-15T16:26:20.140Z,0
2017-01-15T16:27:30.550Z,0
2017-01-15T16:28:41.268Z,0
2017-01-15T16:29:51.674Z,0
2017-01-15T16:31:01.659Z,0
2017-01-15T16:32:12.094Z,0
2017-01-15T16:33:22.866Z,0
2017-01-15T16:34:33.643Z,0
2017-01-15T16:35:44.032Z,0
2017-01-15T16:36:54.419Z,0
2017-01-15T16:38:04.840Z,0
2017-01-15T16:39:15.864Z,0
2017-01-15T16:40:26.314Z,0
2017-01-15T16:41:37.115Z,0
2017-01-15T16:42:47.878Z,0
2017-01-15T16:43:58.697Z,0
2017-01-15T16:45:09.062Z,0
2017-01-15T16:46:19.836Z,0
2017-01-15T16:47:30.593Z,0
2017-01-15T16:48:40.956Z,0
2017-01-15T16:49:51.314Z,0
2017-01-15T16:51:01.695Z,0
2017-01-15T16:52:12.445Z,0
2017-01-15T16:53:23.207Z,0
2017-01-15T16:54:33.968Z,0
2017-01-15T16:55:44.332Z,0